Latest Weather Observations for Dalby

IDQ60801

Issued at 6:35 pm EST Friday 28 November 2014 (issued every 30 minutes, with the page automatically refreshed every 10 minutes)

About weather observations | Map of weather stations | Latest weather observations for QLD | Other Formats
Station Details ID: 041522 Name: DALBY AIRPORT Lat: -27.16 Lon: 151.26 Height: 343.9 m
Data from the previous 72 hours. | See also: Recent months at Dalby
Date/Time
EST
Temp
°C
App
Temp
°C
Dew
Point
Rel
Hum
%
Delta-T
°C
Wind Press
QNH
hPa
Press
MSL
hPa
Rain
since 9 am
mm
Dir
 
Spd
km/h
Gust
km/h
Spd
kts
Gust
kts
28/06:30pm 22.8 18.5 15.4 63 4.5 E 32 43 17 23 1017.0 1015.4 0.0
28/06:00pm 23.4 18.9 15.5 61 4.8 ENE 33 43 18 23 1016.5 1014.8 0.0
28/05:30pm 24.4 19.7 14.8 55 5.8 ENE 33 44 18 24 1016.1 1014.4 0.0
28/05:00pm 24.8 19.0 14.9 54 6.0 ENE 39 50 21 27 1015.7 1014.0 0.0
28/04:30pm 26.3 21.5 14.7 48 7.1 ENE 33 43 18 23 1015.2 1013.5 0.0
28/04:00pm 26.5 21.9 15.2 49 6.9 ENE 33 44 18 24 1015.3 1013.6 0.0
28/03:30pm 29.0 25.1 13.2 37 9.5 E 26 39 14 21 1015.3 1013.6 0.0
28/03:00pm 28.5 24.5 14.0 41 8.8 E 28 39 15 21 1015.7 1014.0 0.0
28/02:30pm 28.7 26.0 14.5 42 8.7 E 22 30 12 16 1016.1 1014.4 0.0
28/02:06pm 27.9 22.3 13.4 40 8.7 ESE 35 37 19 20 1016.3 1014.6 0.0
28/02:00pm 28.4 26.8 12.7 38 9.3 E 13 17 7 9 1016.4 1014.7 0.0
28/01:30pm 27.9 24.9 13.8 42 8.5 E 22 30 12 16 1016.6 1014.9 0.0
28/01:00pm 27.8 26.3 14.1 43 8.3 NE 15 26 8 14 1017.0 1015.4 0.0
28/12:30pm 26.8 24.5 14.2 46 7.6 ESE 19 24 10 13 1017.6 1016.0 0.0
28/12:00pm 26.6 24.9 16.2 52 6.5 E 20 33 11 18 1018.3 1016.6 0.0
28/11:30am 24.9 21.8 14.4 52 6.3 ENE 24 30 13 16 1018.7 1017.0 0.0
28/11:00am 24.5 21.2 14.9 55 5.8 ENE 26 37 14 20 1018.9 1017.2 0.0
28/10:30am 24.9 22.8 14.7 53 6.2 ENE 19 28 10 15 1019.0 1017.3 0.0
28/10:00am 24.7 22.8 15.3 56 5.7 ENE 19 24 10 13 1018.8 1017.1 0.0
28/09:30am 24.4 22.7 14.8 55 5.8 E 17 28 9 15 1019.1 1017.4 0.0
28/09:00am 23.5 21.3 15.0 59 5.1 E 20 30 11 16 1019.0 1017.3 0.0
28/08:30am 23.5 20.5 14.8 58 5.2 E 24 33 13 18 1018.9 1017.2 0.0
28/08:00am 22.7 19.8 15.0 61 4.6 E 24 32 13 17 1019.0 1017.3 0.0
28/07:30am 22.5 19.7 15.4 64 4.3 E 24 33 13 18 1019.0 1017.3 0.0
28/07:00am 22.3 17.9 15.2 64 4.3 E 32 43 17 23 1018.7 1017.0 0.0
28/06:30am 22.1 19.4 15.7 67 3.9 E 24 30 13 16 1018.6 1016.9 0.0
28/06:00am 21.1 19.8 15.9 72 3.2 ENE 17 30 9 16 1018.4 1016.7 0.0
28/05:30am 20.6 21.0 16.2 76 2.7 ENE 9 20 5 11 1018.0 1016.3 0.0
28/05:00am 19.5 19.7 15.8 79 2.2 E 9 13 5 7 1017.4 1015.8 0.0
28/04:30am 20.0 19.1 15.8 77 2.5 ESE 15 20 8 11 1017.0 1015.4 0.0
28/04:00am 20.5 18.3 15.9 75 2.8 E 22 30 12 16 1016.7 1015.0 0.0
28/03:30am 21.3 17.6 16.0 72 3.2 E 30 37 16 20 1016.4 1014.7 0.0
28/03:00am 21.4 17.4 16.1 72 3.2 E 32 43 17 23 1016.3 1014.6 0.0
28/02:30am 21.5 17.9 16.2 72 3.2 E 30 37 16 20 1016.3 1014.6 0.0
28/02:00am 21.3 18.9 16.3 73 3.1 E 24 32 13 17 1016.5 1014.8 0.0
28/01:30am 21.2 18.7 16.2 73 3.1 E 24 33 13 18 1016.4 1014.7 0.0
28/01:00am 20.8 19.6 16.0 74 2.9 E 17 20 9 11 1016.6 1014.9 0.0
28/12:30am 20.8 20.0 16.0 74 2.9 E 15 19 8 10 1016.8 1015.1 0.0
28/12:00am 21.0 18.8 16.0 73 3.0 E 22 33 12 18 1016.8 1015.1 0.0
 
Date/Time
EST
Temp
°C
App
Temp
°C
Dew
Point
Rel
Hum
%
Delta-T
°C
Wind Press
QNH
hPa
Press
MSL
hPa
Rain
since 9 am
mm
Dir
 
Spd
km/h
Gust
km/h
Spd
kts
Gust
kts
27/11:30pm 21.1 17.8 16.1 73 3.1 E 28 39 15 21 1016.5 1014.8 0.0
27/11:00pm 21.2 18.0 15.3 69 3.5 E 26 35 14 19 1016.8 1015.1 0.0
27/10:30pm 21.4 17.8 15.3 68 3.7 E 28 37 15 20 1017.1 1015.5 0.0
27/10:00pm 21.7 17.4 15.3 67 3.9 E 32 44 17 24 1016.9 1015.2 0.0
27/09:30pm 22.1 18.6 15.5 66 4.0 E 28 35 15 19 1016.9 1015.2 0.0
27/09:00pm 22.3 18.3 15.2 64 4.3 E 30 39 16 21 1016.6 1014.9 0.0
27/08:30pm 22.7 16.9 15.0 61 4.6 E 39 61 21 33 1015.9 1014.2 0.0
27/08:26pm 22.7 16.9 15.0 61 4.6 E 39 57 21 31 1015.9 1014.2 0.0
27/08:00pm 23.3 16.3 15.4 61 4.8 E 46 59 25 32 1015.6 1013.9 0.0
27/07:30pm 24.7 17.8 13.9 51 6.4 E 43 63 23 34 1015.0 1013.3 0.0
27/07:10pm 25.7 19.0 14.5 50 6.8 E 43 61 23 33 1014.1 1012.4 0.0
27/07:04pm 26.6 19.6 13.7 45 7.7 E 43 52 23 28 1014.3 1012.6 0.0
27/07:00pm 27.5 27.3 14.8 45 7.8 ESE 9 15 5 8 1013.8 1012.1 0.0
27/06:30pm 29.3 28.4 12.7 36 9.9 SE 9 11 5 6 1013.6 1011.9 0.0
27/06:00pm 30.8 29.0 10.7 29 11.7 SE 11 13 6 7 1013.4 1011.7 0.0
27/05:30pm 31.2 28.9 10.5 28 12.0 SSE 13 20 7 11 1013.2 1011.5 0.0
27/05:00pm 32.1 29.5 10.7 27 12.5 S 15 24 8 13 1012.7 1011.0 0.0
27/04:30pm 32.0 29.3 8.9 24 13.1 S 13 22 7 12 1012.5 1010.8 0.0
27/04:00pm 32.4 30.2 9.2 24 13.3 SSW 11 20 6 11 1012.5 1010.8 0.0
27/03:30pm 31.7 29.6 9.8 26 12.6 S 11 24 6 13 1012.9 1011.2 0.0
27/03:00pm 31.7 29.2 9.8 26 12.6 SSE 13 20 7 11 1013.1 1011.4 0.0
27/02:30pm 32.3 29.8 10.9 27 12.6 SSE 15 22 8 12 1013.5 1011.8 0.0
27/02:00pm 31.2 30.1 13.0 33 11.0 SE 11 20 6 11 1014.0 1012.3 0.0
27/01:30pm 30.5 29.3 12.9 34 10.6 S 11 20 6 11 1014.3 1012.6 0.0
27/01:00pm 30.1 27.6 13.4 36 10.1 SW 19 26 10 14 1014.9 1013.2 0.0
27/12:30pm 30.1 29.2 13.8 37 9.9 SW 11 19 6 10 1015.3 1013.6 0.0
27/12:00pm 29.2 27.1 14.6 41 9.0 WSW 19 26 10 14 1015.8 1014.1 0.0
27/11:30am 29.0 28.7 15.5 44 8.4 S 11 22 6 12 1016.1 1014.4 0.0
27/11:00am 27.9 27.4 14.9 45 8.0 WSW 11 17 6 9 1016.5 1014.8 0.0
27/10:30am 27.3 27.2 16.0 50 7.0 NW 11 17 6 9 1016.9 1015.2 0.0
27/10:00am 26.7 27.5 16.3 53 6.5 N 7 20 4 11 1017.3 1015.7 0.0
27/09:30am 26.1 26.2 16.6 55 6.0 NW 11 17 6 9 1017.4 1015.8 0.0
27/09:00am 25.5 25.0 16.9 59 5.4 N 15 22 8 12 1017.5 1015.9 23.4
27/08:30am 24.5 24.0 17.0 63 4.7 NNW 15 20 8 11 1017.6 1016.0 23.4
27/08:00am 23.7 23.9 18.6 73 3.3 NNW 15 22 8 12 1017.7 1016.1 23.4
27/07:30am 23.0 22.2 18.1 74 3.1 N 19 24 10 13 1017.7 1016.1 23.4
27/07:00am 22.2 22.5 17.8 76 2.8 N 13 20 7 11 1017.6 1016.0 23.4
27/06:30am 20.7 21.3 16.7 78 2.5 N 9 13 5 7 1017.4 1015.8 23.4
27/06:00am 20.2 21.9 17.2 83 1.9 N 4 9 2 5 1017.2 1015.6 23.4
27/05:30am 19.3 21.9 17.6 90 1.1 CALM 0 0 0 0 1016.7 1015.0 23.4
27/05:00am 18.6 21.0 17.1 91 0.9 CALM 0 0 0 0 1016.4 1014.7 23.4
27/04:30am 18.6 21.0 16.9 90 1.0 CALM 0 6 0 3 1016.1 1014.4 23.4
27/04:00am 18.8 20.4 16.9 89 1.2 SE 4 6 2 3 1015.8 1014.1 23.4
27/03:30am 19.2 21.3 17.2 88 1.2 SSE 2 7 1 4 1015.7 1014.0 23.4
27/03:00am 19.4 21.9 17.2 87 1.4 CALM 0 0 0 0 1015.6 1013.9 23.4
27/02:30am 19.7 20.9 17.3 86 1.5 SSW 7 9 4 5 1015.5 1013.8 23.4
27/02:00am 20.1 22.9 17.9 87 1.4 CALM 0 0 0 0 1015.6 1013.9 23.4
27/01:30am 20.3 23.1 17.9 86 1.5 CALM 0 0 0 0 1015.8 1014.1 23.4
27/01:00am 20.4 23.2 18.0 86 1.5 CALM 0 0 0 0 1016.0 1014.3 23.4
27/12:30am 20.4 22.7 17.6 84 1.7 SSW 2 7 1 4 1016.0 1014.3 23.4
27/12:00am 20.7 21.0 17.1 80 2.2 NE 11 13 6 7 1016.4 1014.7 23.4
 
Date/Time
EST
Temp
°C
App
Temp
°C
Dew
Point
Rel
Hum
%
Delta-T
°C
Wind Press
QNH
hPa
Press
MSL
hPa
Rain
since 9 am
mm
Dir
 
Spd
km/h
Gust
km/h
Spd
kts
Gust
kts
26/11:30pm 20.8 21.9 17.0 79 2.4 S 7 9 4 5 1016.8 1015.1 23.4
26/11:00pm 20.7 20.9 16.7 78 2.5 ESE 11 13 6 7 1016.9 1015.2 23.4
26/10:30pm 21.2 21.2 16.2 73 3.1 SSE 11 17 6 9 1017.3 1015.7 23.4
26/10:00pm 21.5 20.4 15.3 68 3.7 E 15 20 8 11 1017.0 1015.4 23.4
26/09:30pm 21.0 18.6 15.5 71 3.3 NE 22 28 12 15 1016.3 1014.6 23.4
26/09:00pm 20.4 18.8 16.4 78 2.4 ENE 20 24 11 13 1016.4 1014.7 23.4
26/08:30pm 20.6 19.2 16.6 78 2.5 ESE 19 24 10 13 1016.6 1014.9 23.4
26/08:00pm 20.6 20.4 16.8 79 2.3 E 13 17 7 9 1016.8 1015.1 23.4
26/07:30pm 20.2 19.0 17.0 82 2.0 NE 19 24 10 13 1016.3 1014.6 23.4
26/07:00pm 20.1 19.9 17.5 85 1.6 NE 15 19 8 10 1016.8 1015.1 23.4
26/06:30pm 20.3 20.9 17.7 85 1.6 NNE 11 20 6 11 1016.7 1015.0 23.4
26/06:00pm 20.1 19.6 17.9 87 1.4 E 17 20 9 11 1016.2 1014.5 23.4
26/05:30pm 20.3 19.5 18.1 87 1.4 SSE 19 22 10 12 1016.1 1014.4 23.4
26/05:00pm 20.0 18.9 17.4 85 1.6 SSW 19 24 10 13 1016.6 1014.9 18.8
26/04:30pm 19.9 18.2 17.1 84 1.7 S 22 32 12 17 1016.4 1014.7 15.0
26/04:00pm 19.4 18.1 17.2 87 1.4 SSW 20 28 11 15 1016.5 1014.8 13.4
26/03:30pm 20.8 17.3 16.6 77 2.6 S 30 39 16 21 1015.9 1014.2 4.6
26/03:00pm 21.4 17.8 17.2 77 2.6 S 32 43 17 23 1015.6 1013.9 4.6
26/02:40pm 21.6 19.0 17.8 79 2.4 S 28 46 15 25 1015.5 1013.8 4.6
26/02:30pm 21.8 19.4 19.0 84 1.8 S 30 41 16 22 1015.6 1013.9 4.6
26/02:00pm 23.7 19.5 17.2 67 4.1 SSW 35 44 19 24 1015.4 1013.7 0.4
26/01:34pm 26.5 20.6 14.6 48 7.2 SSW 39 63 21 34 1014.9 1013.2 0.0
26/01:30pm 27.2 21.2 13.2 42 8.4 SW 37 54 20 29 1015.2 1013.5 0.0
26/01:28pm 29.4 25.0 12.8 36 9.9 SSW 28 54 15 29 1015.0 1013.3 0.0
26/01:00pm 31.7 29.8 13.0 32 11.3 E 15 22 8 12 1014.2 1012.5 0.0
26/12:30pm 32.0 32.2 14.2 34 11.0 NE 6 11 3 6 1014.4 1012.8 0.0
26/12:00pm 31.4 30.1 13.6 33 10.9 NE 13 22 7 12 1015.3 1013.6 0.0
26/11:30am 30.8 30.9 14.0 36 10.3 NW 6 20 3 11 1015.9 1014.2 0.0
26/11:00am 30.3 30.8 15.6 41 9.2 S 7 15 4 8 1016.1 1014.4 0.0
26/10:30am 29.7 28.9 15.0 40 9.1 E 13 17 7 9 1016.4 1014.7 0.0
26/10:00am 29.0 29.1 15.5 44 8.4 NW 9 15 5 8 1016.9 1015.2 0.0
26/09:30am 28.4 28.6 14.6 43 8.5 NE 7 13 4 7 1016.8 1015.1 0.0
26/09:00am 28.1 29.0 16.7 50 7.2 E 7 11 4 6 1016.9 1015.2 0.0
26/08:30am 26.9 27.2 15.9 51 6.8 ENE 9 13 5 7 1017.1 1015.5 0.0
26/08:00am 26.5 27.9 17.3 57 5.8 WSW 6 11 3 6 1017.3 1015.7 0.0
26/07:30am 25.1 25.9 17.3 62 4.9 NW 9 13 5 7 1017.1 1015.5 0.0
26/07:00am 24.4 25.2 17.4 65 4.4 N 9 13 5 7 1017.2 1015.6 0.0
26/06:30am 24.2 25.0 17.2 65 4.4 NE 9 11 5 6 1016.9 1015.2 0.0
26/06:00am 23.7 24.4 17.9 70 3.7 ESE 11 13 6 7 1016.5 1014.8 0.0
26/05:30am 22.2 22.9 18.0 77 2.7 ESE 11 17 6 9 1016.0 1014.3 0.0
26/05:00am 21.8 22.0 17.6 77 2.6 E 13 15 7 8 1015.6 1013.9 0.0
26/04:30am 22.0 22.1 17.4 75 2.9 E 13 17 7 9 1015.4 1013.7 0.0
26/04:00am 22.4 21.8 17.5 74 3.1 E 17 22 9 12 1015.0 1013.3 0.0
26/03:30am 22.8 22.2 17.5 72 3.3 E 17 22 9 12 1014.7 1013.1 0.0
26/03:00am 23.1 21.4 17.3 70 3.6 E 22 32 12 17 1014.4 1012.8 0.0
26/02:30am 23.2 21.6 17.4 70 3.6 ENE 22 30 12 16 1014.9 1013.2 0.0
26/02:00am 23.5 19.6 17.0 67 4.1 ENE 33 44 18 24 1014.5 1012.9 0.0
26/01:30am 23.6 21.0 16.9 66 4.2 E 26 35 14 19 1015.0 1013.3 0.0
26/01:00am 23.8 21.4 16.3 63 4.6 E 24 33 13 18 1015.6 1013.9 0.0
26/12:30am 24.3 21.7 16.0 60 5.1 E 24 32 13 17 1016.0 1014.3 0.0
26/12:00am 24.8 21.0 15.7 57 5.6 ESE 30 37 16 20 1016.3 1014.6 0.0
 
Date/Time
EST
Temp
°C
App
Temp
°C
Dew
Point
Rel
Hum
%
Delta-T
°C
Wind Press
QNH
hPa
Press
MSL
hPa
Rain
since 9 am
mm
Dir
 
Spd
km/h
Gust
km/h
Spd
kts
Gust
kts
25/11:30pm 25.1 22.0 15.7 56 5.8 ESE 26 35 14 19 1016.5 1014.8 0.0
25/11:00pm 25.0 20.9 16.4 59 5.3 ESE 33 48 18 26 1016.2 1014.5 0.0
25/10:30pm 25.3 20.0 16.2 57 5.7 ESE 39 52 21 28 1016.1 1014.4 0.0
25/10:00pm 25.6 21.6 16.7 58 5.6 SE 33 44 18 24 1016.0 1014.3 0.0
25/09:30pm 25.7 22.3 16.8 58 5.6 SE 30 41 16 22 1015.8 1014.1 0.0
25/09:00pm 25.7 21.4 16.8 58 5.6 SE 35 50 19 27 1015.6 1013.9 0.0
25/08:39pm 26.2 22.1 16.4 54 6.1 SE 33 52 18 28 1015.6 1013.9 0.0
25/08:30pm 26.5 22.0 16.4 53 6.3 SSE 35 52 19 28 1015.3 1013.6 0.0
25/08:01pm 27.5 23.2 15.8 48 7.3 SSE 33 52 18 28 1014.6 1013.0 0.0
25/08:00pm 27.5 22.8 15.8 48 7.3 SSE 35 52 19 28 1014.6 1013.0 0.0
25/07:53pm 27.9 22.7 15.5 46 7.7 SE 37 52 20 28 1014.5 1012.9 0.0
25/07:30pm 28.5 24.6 15.4 45 8.1 S 30 39 16 21 1013.6 1011.9 0.0
25/07:00pm 29.6 24.8 14.6 40 9.2 S 33 44 18 24 1013.0 1011.3 0.0
25/06:40pm 31.0 26.4 12.4 32 11.1 S 28 46 15 25 1012.7 1011.0 0.0

Other Formats:

Comma delimited format used in spreadsheet applications
http://www.bom.gov.au/fwo/IDQ60801/IDQ60801.94542.axf

JavaScript Object Notation format (JSON) in row-major order
http://www.bom.gov.au/fwo/IDQ60801/IDQ60801.94542.json